Time;durP1;ratioP1;P1;durP2;ratioP2;P2;SDS_P1;SDS_P2;PMS_P1;PMS_P2;Temp;Humidity;BMP_temperature;BMP_pressure;BME280_temperature;BME280_humidity;BME280_pressure;Samples;Min_cycle;Max_cycle;Signal;HPM_P1;HPM_P2
2022/01/30 00:00:31;;;;;;;;;;;;;;;;;;5042860;28;20273;-67
2022/01/30 00:02:56;;;;;;;;;;;;;;;;;;5043246;28;19946;-67
2022/01/30 00:05:22;;;;;;;;;;;;;;;;;;5043475;28;19921;-66
2022/01/30 00:07:47;;;;;;;;;;;;;;;;;;5042945;28;19975;-67
2022/01/30 00:10:14;;;;;;;;;;;;;;;;;;5043454;28;20521;-67
2022/01/30 00:12:53;;;;;;;;;;;;;;;;;;5041184;28;19974;-67
2022/01/30 00:15:19;;;;;;;;;;;;;;;;;;5044076;28;19913;-66
2022/01/30 00:17:54;;;;;;;;;;;;;;;;;;5044240;28;20477;-67
2022/01/30 00:20:23;;;;;;;;;;;;;;;;;;5045552;28;19935;-67
2022/01/30 00:25:17;;;;;;;;;;;;;;;;;;5044432;28;19955;-67
2022/01/30 00:27:50;;;;;;;;;;;;;;;;;;5045062;28;19920;-67
2022/01/30 00:30:34;;;;;;;;;;;;;;;;;;5036169;28;19960;-67
2022/01/30 00:32:59;;;;;;;;;;;;;;;;;;5043123;28;19919;-67
2022/01/30 00:35:24;;;;;;;;;;;;;;;;;;5042957;28;19913;-67
2022/01/30 00:37:49;;;;;;;;;;;;;;;;;;5044640;28;19912;-67
2022/01/30 00:40:14;;;;;;;;;;;;;;;;;;5045029;28;19913;-69
2022/01/30 00:42:40;;;;;;;;;;;;;;;;;;5045122;28;19919;-67
2022/01/30 00:45:05;;;;;;;;;;;;;;;;;;5045832;28;20349;-66
2022/01/30 00:47:30;;;;;;;;;;;;;;;;;;5045497;28;19913;-67
2022/01/30 00:49:55;;;;;;;;;;;;;;;;;;5039438;28;19920;-67
2022/01/30 00:52:20;;;;;;;;;;;;;;;;;;5045236;28;19919;-67
2022/01/30 00:54:45;;;;;;;;;;;;;;;;;;5045618;28;19913;-67
2022/01/30 00:57:11;;;;;;;;;;;;;;;;;;5044782;28;20580;-67
2022/01/30 00:59:36;;;;;;;;;;;;;;;;;;5045568;28;19913;-67
2022/01/30 01:02:01;;;;;;;;;;;;;;;;;;5031867;28;20003;-67
2022/01/30 01:04:26;;;;;;;;;;;;;;;;;;5045150;28;19952;-67
2022/01/30 01:06:51;;;;;;;;;;;;;;;;;;5048323;28;19952;-67
2022/01/30 01:09:21;;;;;;;;;;;;;;;;;;5043705;28;19928;-67
2022/01/30 01:12:12;;;;;;;;;;;;;;;;;;5043301;28;20614;-67
2022/01/30 01:23:31;;;;;;;;;;;;;;;;;;5035984;28;19920;-67
2022/01/30 01:25:46;;;;;;;;;;;;;;;;;;5039685;28;19917;-67
2022/01/30 01:28:11;;;;;;;;;;;;;;;;;;5043123;28;19920;-67
2022/01/30 01:30:36;;;;;;;;;;;;;;;;;;5044135;28;20062;-67
2022/01/30 01:33:03;;;;;;;;;;;;;;;;;;5043338;28;19912;-67
2022/01/30 01:35:28;;;;;;;;;;;;;;;;;;5042685;28;20388;-66
2022/01/30 01:37:55;;;;;;;;;;;;;;;;;;5041736;28;19964;-67
2022/01/30 01:40:20;;;;;;;;;;;;;;;;;;5042100;28;20388;-67
2022/01/30 01:42:46;;;;;;;;;;;;;;;;;;5042732;28;19913;-66
2022/01/30 01:45:17;;;;;;;;;;;;;;;;;;5041567;28;19924;-67
2022/01/30 01:47:42;;;;;;;;;;;;;;;;;;5040653;28;19975;-66
2022/01/30 01:50:16;;;;;;;;;;;;;;;;;;5041354;28;19920;-66
2022/01/30 01:52:41;;;;;;;;;;;;;;;;;;5040042;28;19974;-67
2022/01/30 01:55:06;;;;;;;;;;;;;;;;;;5041522;28;19917;-67
2022/01/30 01:57:31;;;;;;;;;;;;;;;;;;5042346;28;19940;-66
2022/01/30 01:59:56;;;;;;;;;;;;;;;;;;5043635;28;19920;-67
2022/01/30 02:02:23;;;;;;;;;;;;;;;;;;5041071;28;20429;-67
2022/01/30 02:04:48;;;;;;;;;;;;;;;;;;5060212;22;19958;-68
2022/01/30 02:10:24;;;;;;;;;;;;;;;;;;4978317;28;19914;-68
2022/01/30 02:12:52;;;;;;;;;;;;;;;;;;4978020;28;19956;-68
2022/01/30 02:25:59;;;;;;;;;;;;;;;;;;4978945;28;19952;-69
2022/01/30 02:28:25;;;;;;;;;;;;;;;;;;4979072;28;19990;-69
2022/01/30 02:30:59;;;;;;;;;;;;;;;;;;4978397;28;19914;-69
2022/01/30 02:33:24;;;;;;;;;;;;;;;;;;4974168;28;19914;-69
2022/01/30 02:35:49;;;;;;;;;;;;;;;;;;4975739;28;20040;-69
2022/01/30 02:38:16;;;;;;;;;;;;;;;;;;4978549;28;20285;-69
2022/01/30 02:40:43;;;;;;;;;;;;;;;;;;5001536;28;20124;-69
2022/01/30 02:43:09;;;;;;;;;;;;;;;;;;5061057;28;20445;-69
2022/01/30 02:45:37;;;;;;;;;;;;;;;;;;5059712;28;19952;-69
2022/01/30 02:50:37;;;;;;;;;;;;;;;;;;5068290;28;19912;-69
2022/01/30 02:53:05;;;;;;;;;;;;;;;;;;5064596;28;20376;-69
2022/01/30 02:55:30;;;;;;;;;;;;;;;;;;5062385;28;19920;-69
2022/01/30 02:57:56;;;;;;;;;;;;;;;;;;5064805;28;19912;-69
2022/01/30 03:00:21;;;;;;;;;;;;;;;;;;5060604;28;20542;-69
2022/01/30 03:02:46;;;;;;;;;;;;;;;;;;5064356;28;19920;-69
2022/01/30 03:05:11;;;;;;;;;;;;;;;;;;5072790;28;19920;-69
2022/01/30 03:07:36;;;;;;;;;;;;;;;;;;5064928;28;19908;-69
2022/01/30 03:10:01;;;;;;;;;;;;;;;;;;5064529;28;19960;-65
2022/01/30 03:12:26;;;;;;;;;;;;;;;;;;5063901;28;19920;-65
2022/01/30 03:14:52;;;;;;;;;;;;;;;;;;5063303;28;19912;-65
2022/01/30 03:17:17;;;;;;;;;;;;;;;;;;5063021;28;19917;-65
2022/01/30 03:19:42;;;;;;;;;;;;;;;;;;5065399;28;20008;-65
2022/01/30 03:22:07;;;;;;;;;;;;;;;;;;5064244;28;19963;-65
2022/01/30 03:24:37;;;;;;;;;;;;;;;;;;5063769;28;20338;-65
2022/01/30 03:27:02;;;;;;;;;;;;;;;;;;5063977;28;19923;-65
2022/01/30 03:29:27;;;;;;;;;;;;;;;;;;5064214;28;20587;-65
2022/01/30 03:31:52;;;;;;;;;;;;;;;;;;5063683;28;19924;-65
2022/01/30 03:34:17;;;;;;;;;;;;;;;;;;5063571;28;19924;-65
2022/01/30 03:36:43;;;;;;;;;;;;;;;;;;5068451;28;19973;-65
2022/01/30 03:39:08;;;;;;;;;;;;;;;;;;5063535;28;19963;-65
2022/01/30 03:41:33;;;;;;;;;;;;;;;;;;5063681;28;19917;-65
2022/01/30 03:43:58;;;;;;;;;;;;;;;;;;5063327;28;20463;-65
2022/01/30 03:46:23;;;;;;;;;;;;;;;;;;5064052;28;19944;-65
2022/01/30 03:48:48;;;;;;;;;;;;;;;;;;5067436;28;20519;-65
2022/01/30 03:51:13;;;;;;;;;;;;;;;;;;5062419;28;19916;-65
2022/01/30 03:53:39;;;;;;;;;;;;;;;;;;5064010;28;19932;-68
2022/01/30 03:56:04;;;;;;;;;;;;;;;;;;5063203;28;19995;-68
2022/01/30 03:58:29;;;;;;;;;;;;;;;;;;5063362;28;19916;-68
2022/01/30 04:00:54;;;;;;;;;;;;;;;;;;5062566;28;19955;-68
2022/01/30 04:03:19;;;;;;;;;;;;;;;;;;5062884;28;19912;-68
2022/01/30 04:05:44;;;;;;;;;;;;;;;;;;5067521;28;19912;-68
2022/01/30 04:08:09;;;;;;;;;;;;;;;;;;5069979;28;19920;-68
2022/01/30 04:10:34;;;;;;;;;;;;;;;;;;5070774;28;19920;-68
2022/01/30 04:13:00;;;;;;;;;;;;;;;;;;5063574;28;20295;-68
2022/01/30 04:15:25;;;;;;;;;;;;;;;;;;5062764;28;19912;-68
2022/01/30 04:17:50;;;;;;;;;;;;;;;;;;5062517;28;19959;-68
2022/01/30 04:20:15;;;;;;;;;;;;;;;;;;5063087;28;20027;-68
2022/01/30 04:22:40;;;;;;;;;;;;;;;;;;5062964;28;19944;-68
2022/01/30 04:25:05;;;;;;;;;;;;;;;;;;5062788;28;20372;-68
2022/01/30 04:27:31;;;;;;;;;;;;;;;;;;5060400;28;20015;-68
2022/01/30 04:29:56;;;;;;;;;;;;;;;;;;5057464;28;20327;-68
2022/01/30 04:32:21;;;;;;;;;;;;;;;;;;5057682;28;19978;-68
2022/01/30 04:34:53;;;;;;;;;;;;;;;;;;5058169;28;19920;-68
2022/01/30 04:37:26;;;;;;;;;;;;;;;;;;5058030;28;19972;-68
2022/01/30 04:54:22;;;;;;;;;;;;;;;;;;5060091;28;19962;-68
2022/01/30 05:04:26;;;;;;;;;;;;;;;;;;5067546;28;20323;-68
2022/01/30 05:07:27;;;;;;;;;;;;;;;;;;5059034;28;19912;-68
2022/01/30 05:09:36;;;;;;;;;;;;;;;;;;5060966;28;19919;-68
2022/01/30 05:12:01;;;;;;;;;;;;;;;;;;5068456;28;19920;-68
2022/01/30 05:14:33;;;;;;;;;;;;;;;;;;5064053;28;20603;-68
2022/01/30 05:16:58;;;;;;;;;;;;;;;;;;5069907;28;19912;-68
2022/01/30 05:19:23;;;;;;;;;;;;;;;;;;5060964;28;20358;-68
2022/01/30 05:21:48;;;;;;;;;;;;;;;;;;5061559;28;20580;-68
2022/01/30 05:24:13;;;;;;;;;;;;;;;;;;5061691;28;20323;-69
2022/01/30 05:26:38;;;;;;;;;;;;;;;;;;5061906;28;20328;-69
2022/01/30 05:29:04;;;;;;;;;;;;;;;;;;5068310;28;20264;-68
2022/01/30 05:31:29;;;;;;;;;;;;;;;;;;5061651;28;20295;-68
2022/01/30 05:33:54;;;;;;;;;;;;;;;;;;5062105;28;20016;-68
2022/01/30 05:36:19;;;;;;;;;;;;;;;;;;5061391;28;20571;-68
2022/01/30 05:38:44;;;;;;;;;;;;;;;;;;5062149;28;20318;-68
2022/01/30 05:41:09;;;;;;;;;;;;;;;;;;5059910;28;19986;-68
2022/01/30 05:43:34;;;;;;;;;;;;;;;;;;5061915;28;20003;-68
2022/01/30 05:46:10;;;;;;;;;;;;;;;;;;5061494;28;19912;-68
2022/01/30 05:48:35;;;;;;;;;;;;;;;;;;5059997;28;19913;-68
2022/01/30 05:51:00;;;;;;;;;;;;;;;;;;5060954;28;20418;-68
2022/01/30 05:53:25;;;;;;;;;;;;;;;;;;5061258;28;19913;-68
2022/01/30 05:55:50;;;;;;;;;;;;;;;;;;5061113;28;19912;-68
2022/01/30 05:58:16;;;;;;;;;;;;;;;;;;5061814;28;19957;-69
2022/01/30 06:00:41;;;;;;;;;;;;;;;;;;5060845;28;20017;-68
2022/01/30 06:03:06;;;;;;;;;;;;;;;;;;5056412;28;20098;-68
2022/01/30 06:05:32;;;;;;;;;;;;;;;;;;5060423;28;19959;-68
2022/01/30 06:07:57;;;;;;;;;;;;;;;;;;5061026;28;19913;-68
2022/01/30 06:10:22;;;;;;;;;;;;;;;;;;5060254;28;19912;-68
2022/01/30 06:12:47;;;;;;;;;;;;;;;;;;5060299;28;19912;-68
2022/01/30 06:15:13;;;;;;;;;;;;;;;;;;5060578;28;20008;-68
2022/01/30 06:17:38;;;;;;;;;;;;;;;;;;5064796;28;20364;-68
2022/01/30 06:20:03;;;;;;;;;;;;;;;;;;5060602;28;19978;-68
2022/01/30 06:22:28;;;;;;;;;;;;;;;;;;5061149;28;19913;-68
2022/01/30 06:24:53;;;;;;;;;;;;;;;;;;5064556;28;19917;-68
2022/01/30 06:27:18;;;;;;;;;;;;;;;;;;5064931;28;20008;-68
2022/01/30 06:29:44;;;;;;;;;;;;;;;;;;5068326;28;19975;-68
2022/01/30 06:32:09;;;;;;;;;;;;;;;;;;5064939;28;20419;-68
2022/01/30 06:34:34;;;;;;;;;;;;;;;;;;5064541;28;19923;-68
2022/01/30 06:36:59;;;;;;;;;;;;;;;;;;5064817;28;19913;-68
2022/01/30 06:39:24;;;;;;;;;;;;;;;;;;5063946;28;21604;-68
2022/01/30 06:41:49;;;;;;;;;;;;;;;;;;5065264;28;19995;-68
2022/01/30 06:44:14;;;;;;;;;;;;;;;;;;5059518;28;20396;-68
2022/01/30 06:46:40;;;;;;;;;;;;;;;;;;5064495;28;19916;-68
2022/01/30 06:49:05;;;;;;;;;;;;;;;;;;5063821;28;20012;-68
2022/01/30 06:51:30;;;;;;;;;;;;;;;;;;5064362;28;19935;-68
2022/01/30 06:53:55;;;;;;;;;;;;;;;;;;5066354;28;20436;-71
2022/01/30 06:56:20;;;;;;;;;;;;;;;;;;5066935;28;19916;-70
2022/01/30 06:58:48;;;;;;;;;;;;;;;;;;5064959;28;19962;-69
2022/01/30 07:01:13;;;;;;;;;;;;;;;;;;5064124;28;19951;-69
2022/01/30 07:03:38;;;;;;;;;;;;;;;;;;5063208;28;19913;-69
2022/01/30 07:06:03;;;;;;;;;;;;;;;;;;5064790;28;19918;-70
2022/01/30 07:08:28;;;;;;;;;;;;;;;;;;5063087;28;19912;-70
2022/01/30 07:10:54;;;;;;;;;;;;;;;;;;5064813;28;20423;-70
2022/01/30 07:13:19;;;;;;;;;;;;;;;;;;5065955;28;20016;-70
2022/01/30 07:15:44;;;;;;;;;;;;;;;;;;5070726;28;19919;-70
2022/01/30 07:18:09;;;;;;;;;;;;;;;;;;5064901;28;20007;-70
2022/01/30 07:20:34;;;;;;;;;;;;;;;;;;5063846;28;19912;-70
2022/01/30 07:22:59;;;;;;;;;;;;;;;;;;5063794;28;19913;-70
2022/01/30 07:25:24;;;;;;;;;;;;;;;;;;5063306;28;19990;-70
2022/01/30 07:27:50;;;;;;;;;;;;;;;;;;5063921;28;20347;-70
2022/01/30 07:30:15;;;;;;;;;;;;;;;;;;5047756;28;19924;-70
2022/01/30 07:32:40;;;;;;;;;;;;;;;;;;5064030;28;19954;-70
2022/01/30 07:35:05;;;;;;;;;;;;;;;;;;5067169;28;20371;-70
2022/01/30 07:37:30;;;;;;;;;;;;;;;;;;5064013;28;19977;-70
2022/01/30 07:39:59;;;;;;;;;;;;;;;;;;5063280;28;19955;-70
2022/01/30 07:42:24;;;;;;;;;;;;;;;;;;5063468;28;19916;-70
2022/01/30 07:44:49;;;;;;;;;;;;;;;;;;5064548;28;20007;-70
2022/01/30 07:47:14;;;;;;;;;;;;;;;;;;5063545;28;19967;-70
2022/01/30 07:49:39;;;;;;;;;;;;;;;;;;5063467;28;20327;-70
2022/01/30 07:52:04;;;;;;;;;;;;;;;;;;5063290;28;20577;-70
2022/01/30 07:54:32;;;;;;;;;;;;;;;;;;5062457;28;19925;-70
2022/01/30 07:56:57;;;;;;;;;;;;;;;;;;5063025;28;19916;-70
2022/01/30 07:59:23;;;;;;;;;;;;;;;;;;5064955;28;20001;-70
2022/01/30 08:01:48;;;;;;;;;;;;;;;;;;5063225;28;19912;-70
2022/01/30 08:04:13;;;;;;;;;;;;;;;;;;5060251;28;20051;-70
2022/01/30 08:06:38;;;;;;;;;;;;;;;;;;5063079;28;19917;-70
2022/01/30 08:09:03;;;;;;;;;;;;;;;;;;5063339;28;19912;-70
2022/01/30 08:11:28;;;;;;;;;;;;;;;;;;5063378;28;19920;-70
2022/01/30 08:13:54;;;;;;;;;;;;;;;;;;5065225;28;19920;-70
2022/01/30 08:16:20;;;;;;;;;;;;;;;;;;5065828;28;19913;-70
2022/01/30 08:18:45;;;;;;;;;;;;;;;;;;5063970;28;20392;-70
2022/01/30 08:21:10;;;;;;;;;;;;;;;;;;5063145;28;19912;-70
2022/01/30 08:23:35;;;;;;;;;;;;;;;;;;5063132;28;20292;-70
2022/01/30 08:26:00;;;;;;;;;;;;;;;;;;5063297;28;20323;-70
2022/01/30 08:28:26;;;;;;;;;;;;;;;;;;5065983;28;20719;-70
2022/01/30 08:30:51;;;;;;;;;;;;;;;;;;5063025;28;20280;-70
2022/01/30 08:33:16;;;;;;;;;;;;;;;;;;5062612;28;20376;-70
2022/01/30 08:35:41;;;;;;;;;;;;;;;;;;5059664;28;19963;-70
2022/01/30 08:38:06;;;;;;;;;;;;;;;;;;5063557;28;19920;-70
2022/01/30 08:40:31;;;;;;;;;;;;;;;;;;5061900;28;19923;-67
2022/01/30 08:42:56;;;;;;;;;;;;;;;;;;5061548;28;19974;-67
2022/01/30 08:45:22;;;;;;;;;;;;;;;;;;5060895;28;19935;-68
2022/01/30 08:47:47;;;;;;;;;;;;;;;;;;5058447;28;19919;-68
2022/01/30 08:50:12;;;;;;;;;;;;;;;;;;5061843;28;19971;-68
2022/01/30 08:52:37;;;;;;;;;;;;;;;;;;5061846;28;20323;-68
2022/01/30 08:55:02;;;;;;;;;;;;;;;;;;5061059;28;19931;-68
2022/01/30 08:57:27;;;;;;;;;;;;;;;;;;5062346;28;19913;-68
2022/01/30 08:59:54;;;;;;;;;;;;;;;;;;5067339;28;19912;-68
2022/01/30 09:02:19;;;;;;;;;;;;;;;;;;5057445;28;19961;-68
2022/01/30 09:04:44;;;;;;;;;;;;;;;;;;5060737;28;19973;-68
2022/01/30 09:07:09;;;;;;;;;;;;;;;;;;5062314;28;19943;-68
2022/01/30 09:09:34;;;;;;;;;;;;;;;;;;5061715;28;19924;-68
2022/01/30 09:11:59;;;;;;;;;;;;;;;;;;5061605;28;19912;-68
2022/01/30 09:14:24;;;;;;;;;;;;;;;;;;5062927;28;20007;-68
2022/01/30 09:16:50;;;;;;;;;;;;;;;;;;5061625;28;19951;-68
2022/01/30 09:19:15;;;;;;;;;;;;;;;;;;5058944;28;19913;-68
2022/01/30 09:21:40;;;;;;;;;;;;;;;;;;5061814;28;20277;-69
2022/01/30 09:24:05;;;;;;;;;;;;;;;;;;5060140;28;20034;-68
2022/01/30 09:26:30;;;;;;;;;;;;;;;;;;5061406;28;20391;-68
2022/01/30 09:28:55;;;;;;;;;;;;;;;;;;5061611;28;19912;-68
2022/01/30 09:31:20;;;;;;;;;;;;;;;;;;5063632;28;19912;-68
2022/01/30 09:33:45;;;;;;;;;;;;;;;;;;5073316;28;19916;-68
2022/01/30 09:36:12;;;;;;;;;;;;;;;;;;5050298;28;19923;-68
2022/01/30 09:38:37;;;;;;;;;;;;;;;;;;5069787;28;19927;-68
2022/01/30 09:41:02;;;;;;;;;;;;;;;;;;5060696;28;19917;-68
2022/01/30 09:43:27;;;;;;;;;;;;;;;;;;5059279;28;19959;-68
2022/01/30 09:45:52;;;;;;;;;;;;;;;;;;5058584;28;19923;-68
2022/01/30 09:48:18;;;;;;;;;;;;;;;;;;5062433;28;19916;-68
2022/01/30 09:50:43;;;;;;;;;;;;;;;;;;5055196;28;19936;-68
2022/01/30 09:53:09;;;;;;;;;;;;;;;;;;5058966;28;20007;-68
2022/01/30 09:55:34;;;;;;;;;;;;;;;;;;5067898;28;20528;-68
2022/01/30 09:57:59;;;;;;;;;;;;;;;;;;5067983;28;19927;-68
2022/01/30 10:00:24;;;;;;;;;;;;;;;;;;5066004;28;19917;-68
2022/01/30 10:02:49;;;;;;;;;;;;;;;;;;5062305;28;19912;-68
2022/01/30 10:05:16;;;;;;;;;;;;;;;;;;5062410;28;19924;-69
2022/01/30 10:07:41;;;;;;;;;;;;;;;;;;5059469;28;19912;-69
2022/01/30 10:10:06;;;;;;;;;;;;;;;;;;5058958;28;20284;-69
2022/01/30 10:12:33;;;;;;;;;;;;;;;;;;5059740;28;20059;-69
2022/01/30 10:14:59;;;;;;;;;;;;;;;;;;5060239;28;19923;-69
2022/01/30 10:17:24;;;;;;;;;;;;;;;;;;5065691;28;19916;-69
2022/01/30 10:19:49;;;;;;;;;;;;;;;;;;5063350;28;19928;-69
2022/01/30 10:22:14;;;;;;;;;;;;;;;;;;5063968;28;19969;-69
2022/01/30 10:24:42;;;;;;;;;;;;;;;;;;5065882;28;19924;-69
2022/01/30 10:27:07;;;;;;;;;;;;;;;;;;5061767;28;20438;-69
2022/01/30 10:29:32;;;;;;;;;;;;;;;;;;5061433;28;19921;-69
2022/01/30 10:31:58;;;;;;;;;;;;;;;;;;5060506;28;20058;-69
2022/01/30 10:34:26;;;;;;;;;;;;;;;;;;5064682;28;19920;-69
2022/01/30 10:36:52;;;;;;;;;;;;;;;;;;5059136;28;20469;-69
2022/01/30 10:39:22;;;;;;;;;;;;;;;;;;5064470;28;19916;-69
2022/01/30 10:41:54;;;;;;;;;;;;;;;;;;5059128;28;20003;-69
2022/01/30 10:44:19;;;;;;;;;;;;;;;;;;5058989;28;20057;-69
2022/01/30 10:46:44;;;;;;;;;;;;;;;;;;5056143;28;20003;-69
2022/01/30 10:49:09;;;;;;;;;;;;;;;;;;5035757;28;19916;-68
2022/01/30 10:51:35;;;;;;;;;;;;;;;;;;5063810;28;19995;-69
2022/01/30 10:54:00;;;;;;;;;;;;;;;;;;5056511;28;19913;-69
2022/01/30 10:56:26;;;;;;;;;;;;;;;;;;5063464;28;20007;-69
2022/01/30 10:58:52;;;;;;;;;;;;;;;;;;5070625;28;19920;-69
2022/01/30 11:01:17;;;;;;;;;;;;;;;;;;5063836;28;19924;-69
2022/01/30 11:03:50;;;;;;;;;;;;;;;;;;5060152;28;19917;-69
2022/01/30 11:06:15;;;;;;;;;;;;;;;;;;5064692;28;19920;-69
2022/01/30 11:08:43;;;;;;;;;;;;;;;;;;5068083;28;19925;-69
2022/01/30 11:11:20;;;;;;;;;;;;;;;;;;5061779;28;20173;-69
2022/01/30 11:13:59;;;;;;;;;;;;;;;;;;5068598;28;19922;-69
2022/01/30 11:19:08;;;;;;;;;;;;;;;;;;5062283;28;19938;-69
2022/01/30 11:21:33;;;;;;;;;;;;;;;;;;5064873;28;19916;-69
2022/01/30 11:23:58;;;;;;;;;;;;;;;;;;5076369;28;20019;-69
2022/01/30 11:26:23;;;;;;;;;;;;;;;;;;5066697;28;19962;-69
2022/01/30 11:28:48;;;;;;;;;;;;;;;;;;5061313;28;20383;-69
2022/01/30 11:31:13;;;;;;;;;;;;;;;;;;5062337;28;20396;-69
2022/01/30 11:33:38;;;;;;;;;;;;;;;;;;5068524;28;20536;-69
2022/01/30 11:36:03;;;;;;;;;;;;;;;;;;5072901;28;19916;-69
2022/01/30 11:38:29;;;;;;;;;;;;;;;;;;5073022;28;19916;-69
2022/01/30 11:40:54;;;;;;;;;;;;;;;;;;5066804;28;19931;-69
2022/01/30 11:43:22;;;;;;;;;;;;;;;;;;5066882;28;19923;-69
2022/01/30 11:45:47;;;;;;;;;;;;;;;;;;5061487;28;20437;-69
2022/01/30 11:48:12;;;;;;;;;;;;;;;;;;5068790;28;20315;-69
2022/01/30 11:50:37;;;;;;;;;;;;;;;;;;5063196;28;19916;-69
2022/01/30 11:53:03;;;;;;;;;;;;;;;;;;5060400;28;19997;-69
2022/01/30 11:55:28;;;;;;;;;;;;;;;;;;5065466;28;19916;-69
2022/01/30 11:57:53;;;;;;;;;;;;;;;;;;5063740;28;19916;-69
2022/01/30 12:00:18;;;;;;;;;;;;;;;;;;5060120;28;19916;-69
2022/01/30 12:02:43;;;;;;;;;;;;;;;;;;5061754;28;19916;-69
2022/01/30 12:05:09;;;;;;;;;;;;;;;;;;5050262;28;19924;-69
2022/01/30 12:07:34;;;;;;;;;;;;;;;;;;5059162;28;19950;-69
2022/01/30 12:09:59;;;;;;;;;;;;;;;;;;5058847;28;19916;-69
2022/01/30 12:12:24;;;;;;;;;;;;;;;;;;5063545;28;19982;-69
2022/01/30 12:14:49;;;;;;;;;;;;;;;;;;5063491;28;19920;-69
2022/01/30 12:17:15;;;;;;;;;;;;;;;;;;5061922;28;19920;-69
2022/01/30 12:19:40;;;;;;;;;;;;;;;;;;5064038;28;19915;-69
2022/01/30 12:22:05;;;;;;;;;;;;;;;;;;5063980;28;19923;-69
2022/01/30 12:24:33;;;;;;;;;;;;;;;;;;5060930;28;20410;-69
2022/01/30 12:27:00;;;;;;;;;;;;;;;;;;5061764;28;19916;-69
2022/01/30 12:29:25;;;;;;;;;;;;;;;;;;5061107;28;20758;-69
2022/01/30 12:31:50;;;;;;;;;;;;;;;;;;5060948;28;19916;-69
2022/01/30 12:34:16;;;;;;;;;;;;;;;;;;5060561;28;20006;-69
2022/01/30 12:36:41;;;;;;;;;;;;;;;;;;5059172;28;20491;-69
2022/01/30 12:39:06;;;;;;;;;;;;;;;;;;5066572;28;19981;-69
2022/01/30 12:41:32;;;;;;;;;;;;;;;;;;5061932;28;20360;-69
2022/01/30 12:43:57;;;;;;;;;;;;;;;;;;5053111;28;19973;-69
2022/01/30 12:46:22;;;;;;;;;;;;;;;;;;5057615;28;20220;-69
2022/01/30 12:48:47;;;;;;;;;;;;;;;;;;5062131;28;19921;-69
2022/01/30 12:51:13;;;;;;;;;;;;;;;;;;5054670;28;19924;-69
2022/01/30 12:53:38;;;;;;;;;;;;;;;;;;5051939;28;19966;-69
2022/01/30 12:56:06;;;;;;;;;;;;;;;;;;5059494;28;19912;-69
2022/01/30 12:58:31;;;;;;;;;;;;;;;;;;5060643;28;19921;-69
2022/01/30 13:00:56;;;;;;;;;;;;;;;;;;5059288;28;19913;-69
2022/01/30 13:03:23;;;;;;;;;;;;;;;;;;5060027;28;20003;-69
2022/01/30 13:05:50;;;;;;;;;;;;;;;;;;5072327;28;20536;-69
2022/01/30 13:08:15;;;;;;;;;;;;;;;;;;5064349;28;19923;-69
2022/01/30 13:10:40;;;;;;;;;;;;;;;;;;5062273;28;19916;-69
2022/01/30 13:13:08;;;;;;;;;;;;;;;;;;5065312;28;20400;-69
2022/01/30 13:15:38;;;;;;;;;;;;;;;;;;5062724;28;19931;-69
2022/01/30 13:18:03;;;;;;;;;;;;;;;;;;5062828;28;19974;-69
2022/01/30 13:20:28;;;;;;;;;;;;;;;;;;5060229;28;19920;-69
2022/01/30 13:22:53;;;;;;;;;;;;;;;;;;5054978;28;19917;-69
2022/01/30 13:25:18;;;;;;;;;;;;;;;;;;5068783;28;19920;-69
2022/01/30 13:27:44;;;;;;;;;;;;;;;;;;5060219;28;20011;-69
2022/01/30 13:30:09;;;;;;;;;;;;;;;;;;5058244;28;19977;-69
2022/01/30 13:32:34;;;;;;;;;;;;;;;;;;5057042;28;19923;-69
2022/01/30 13:34:59;;;;;;;;;;;;;;;;;;5061360;28;19917;-69
2022/01/30 13:37:24;;;;;;;;;;;;;;;;;;5060594;28;20261;-69
2022/01/30 13:46:56;;;;;;;;;;;;;;;;;;5063949;28;19920;-69
2022/01/30 13:47:52;;;;;;;;;;;;;;;;;;5066033;28;20296;-69
2022/01/30 13:50:18;;;;;;;;;;;;;;;;;;5058189;28;19923;-69
2022/01/30 13:52:43;;;;;;;;;;;;;;;;;;5062362;28;19916;-69
2022/01/30 13:55:08;;;;;;;;;;;;;;;;;;5058307;28;19922;-69
2022/01/30 13:57:33;;;;;;;;;;;;;;;;;;5064360;28;19959;-69
2022/01/30 13:59:58;;;;;;;;;;;;;;;;;;5060605;28;20442;-69
2022/01/30 14:02:23;;;;;;;;;;;;;;;;;;5060226;28;20435;-69
2022/01/30 14:04:48;;;;;;;;;;;;;;;;;;5057747;28;20583;-69
2022/01/30 14:07:14;;;;;;;;;;;;;;;;;;5064941;28;19913;-69
2022/01/30 14:09:44;;;;;;;;;;;;;;;;;;5053571;28;20035;-69
2022/01/30 14:12:10;;;;;;;;;;;;;;;;;;5061070;28;19956;-69
2022/01/30 14:14:37;;;;;;;;;;;;;;;;;;5059972;28;19978;-69
2022/01/30 14:17:02;;;;;;;;;;;;;;;;;;5060354;28;20019;-69
2022/01/30 14:19:29;;;;;;;;;;;;;;;;;;5061078;28;20012;-69
2022/01/30 14:21:55;;;;;;;;;;;;;;;;;;5060396;28;19921;-69
2022/01/30 14:24:20;;;;;;;;;;;;;;;;;;5058754;28;19920;-69
2022/01/30 14:26:45;;;;;;;;;;;;;;;;;;5066407;28;19974;-69
2022/01/30 14:29:12;;;;;;;;;;;;;;;;;;5056414;28;20316;-69
2022/01/30 14:31:37;;;;;;;;;;;;;;;;;;5061042;28;20011;-69
2022/01/30 14:34:02;;;;;;;;;;;;;;;;;;5058758;28;20378;-69
2022/01/30 14:36:29;;;;;;;;;;;;;;;;;;5057670;28;20463;-69
2022/01/30 14:38:54;;;;;;;;;;;;;;;;;;5060662;28;19999;-69
2022/01/30 14:41:19;;;;;;;;;;;;;;;;;;5058993;28;20066;-69
2022/01/30 14:43:45;;;;;;;;;;;;;;;;;;5055121;28;19947;-69
2022/01/30 14:46:10;;;;;;;;;;;;;;;;;;5061913;28;20026;-69
2022/01/30 14:48:36;;;;;;;;;;;;;;;;;;5068004;28;19917;-69
2022/01/30 14:51:01;;;;;;;;;;;;;;;;;;5064061;28;19966;-69
2022/01/30 14:53:27;;;;;;;;;;;;;;;;;;5063589;28;19916;-69
2022/01/30 14:55:52;;;;;;;;;;;;;;;;;;5061401;28;20204;-69
2022/01/30 14:58:19;;;;;;;;;;;;;;;;;;5068641;28;19947;-69
2022/01/30 15:00:44;;;;;;;;;;;;;;;;;;5060254;28;20292;-69
2022/01/30 15:03:09;;;;;;;;;;;;;;;;;;5075679;28;19916;-69
2022/01/30 15:05:34;;;;;;;;;;;;;;;;;;5061547;28;20003;-69
2022/01/30 15:08:00;;;;;;;;;;;;;;;;;;5064559;28;20291;-69
2022/01/30 15:10:26;;;;;;;;;;;;;;;;;;5068738;28;19917;-69
2022/01/30 15:12:52;;;;;;;;;;;;;;;;;;5062558;28;19977;-69
2022/01/30 15:15:17;;;;;;;;;;;;;;;;;;5060582;28;19917;-69
2022/01/30 15:17:42;;;;;;;;;;;;;;;;;;5061195;28;19924;-69
2022/01/30 15:20:08;;;;;;;;;;;;;;;;;;5063363;28;20522;-69
2022/01/30 15:22:33;;;;;;;;;;;;;;;;;;5059942;28;20629;-69
2022/01/30 15:24:58;;;;;;;;;;;;;;;;;;5069604;28;19920;-69
2022/01/30 15:27:23;;;;;;;;;;;;;;;;;;5061179;28;19916;-69
2022/01/30 15:29:48;;;;;;;;;;;;;;;;;;5060762;28;19920;-69
2022/01/30 15:32:13;;;;;;;;;;;;;;;;;;5067243;28;20420;-69
2022/01/30 15:34:38;;;;;;;;;;;;;;;;;;5066962;28;19923;-69
2022/01/30 15:37:04;;;;;;;;;;;;;;;;;;5059630;28;19916;-69
2022/01/30 15:39:29;;;;;;;;;;;;;;;;;;5062268;28;19923;-69
2022/01/30 15:41:54;;;;;;;;;;;;;;;;;;5063008;28;19936;-69
2022/01/30 15:44:19;;;;;;;;;;;;;;;;;;5062290;28;19975;-69
2022/01/30 15:49:28;;;;;;;;;;;;;;;;;;5058742;28;19927;-69
2022/01/30 15:51:54;;;;;;;;;;;;;;;;;;5060500;28;19920;-69
2022/01/30 15:54:22;;;;;;;;;;;;;;;;;;5060421;28;19938;-69
2022/01/30 15:56:47;;;;;;;;;;;;;;;;;;5059798;28;20284;-69
2022/01/30 15:59:13;;;;;;;;;;;;;;;;;;5067647;28;19928;-69
2022/01/30 16:01:38;;;;;;;;;;;;;;;;;;5062668;28;19920;-69
2022/01/30 16:04:04;;;;;;;;;;;;;;;;;;5062552;28;20035;-69
2022/01/30 16:06:30;;;;;;;;;;;;;;;;;;5059738;28;19916;-69
2022/01/30 16:16:52;;;;;;;;;;;;;;;;;;4977831;28;19929;-69
2022/01/30 16:19:17;;;;;;;;;;;;;;;;;;4977777;28;19913;-69
2022/01/30 16:21:42;;;;;;;;;;;;;;;;;;4984283;28;20009;-69
2022/01/30 16:24:07;;;;;;;;;;;;;;;;;;4979375;28;19961;-68
2022/01/30 16:26:32;;;;;;;;;;;;;;;;;;4976430;28;19918;-68
2022/01/30 16:28:57;;;;;;;;;;;;;;;;;;4976814;28;20388;-68
2022/01/30 16:31:23;;;;;;;;;;;;;;;;;;4977161;28;19929;-68
2022/01/30 16:33:49;;;;;;;;;;;;;;;;;;4976724;28;19917;-68
2022/01/30 16:36:14;;;;;;;;;;;;;;;;;;4979027;28;19917;-68
2022/01/30 16:38:39;;;;;;;;;;;;;;;;;;4979528;28;19953;-68
2022/01/30 16:41:04;;;;;;;;;;;;;;;;;;4977471;28;19914;-68
2022/01/30 16:43:40;;;;;;;;;;;;;;;;;;4982627;28;20090;-68
2022/01/30 16:46:20;;;;;;;;;;;;;;;;;;4980582;28;19929;-68
2022/01/30 16:48:46;;;;;;;;;;;;;;;;;;5012556;28;20752;-67
2022/01/30 16:51:11;;;;;;;;;;;;;;;;;;5070509;28;19920;-68
2022/01/30 16:53:36;;;;;;;;;;;;;;;;;;5064863;28;19970;-68
2022/01/30 16:56:01;;;;;;;;;;;;;;;;;;5055185;28;19928;-68
2022/01/30 16:58:26;;;;;;;;;;;;;;;;;;5056429;28;19912;-68
2022/01/30 17:00:51;;;;;;;;;;;;;;;;;;5060565;28;19920;-68
2022/01/30 17:03:16;;;;;;;;;;;;;;;;;;5059833;28;19912;-70
2022/01/30 17:05:41;;;;;;;;;;;;;;;;;;5060073;28;20023;-68
2022/01/30 17:08:06;;;;;;;;;;;;;;;;;;5062938;28;20671;-68
2022/01/30 17:10:36;;;;;;;;;;;;;;;;;;5060810;28;19924;-68
2022/01/30 17:13:01;;;;;;;;;;;;;;;;;;5056644;28;19926;-68
2022/01/30 17:15:29;;;;;;;;;;;;;;;;;;5062429;28;19920;-68
2022/01/30 17:17:54;;;;;;;;;;;;;;;;;;5059589;28;20038;-68
2022/01/30 17:20:19;;;;;;;;;;;;;;;;;;5060785;28;20042;-68
2022/01/30 17:22:44;;;;;;;;;;;;;;;;;;5055246;28;19917;-68
2022/01/30 17:25:09;;;;;;;;;;;;;;;;;;5053581;28;19965;-68
2022/01/30 17:27:34;;;;;;;;;;;;;;;;;;5055358;28;19916;-68
2022/01/30 17:29:59;;;;;;;;;;;;;;;;;;5059905;28;20422;-68
2022/01/30 17:32:25;;;;;;;;;;;;;;;;;;5055701;28;19921;-68
2022/01/30 17:34:50;;;;;;;;;;;;;;;;;;5057374;28;20598;-68
2022/01/30 17:37:15;;;;;;;;;;;;;;;;;;5058160;28;19923;-69
2022/01/30 17:39:40;;;;;;;;;;;;;;;;;;5059417;28;20368;-69
2022/01/30 17:42:06;;;;;;;;;;;;;;;;;;5069478;28;19977;-69
2022/01/30 17:44:31;;;;;;;;;;;;;;;;;;5064873;28;19935;-69